Time;durP1;ratioP1;P1;durP2;ratioP2;P2;SDS_P1;SDS_P2;PMS_P1;PMS_P2;Temp;Humidity;BMP_temperature;BMP_pressure;BME280_temperature;BME280_humidity;BME280_pressure;Samples;Min_cycle;Max_cycle;Signal;HPM_P1;HPM_P2
2023/09/05 00:01:52;;;;;;;18.90;13.20;;;;;;;11.17;100.00;100190.02;109631;1250;60155;-67
2023/09/05 00:04:19;;;;;;;16.80;13.00;;;;;;;11.13;100.00;100189.02;109700;1250;60229;-69
2023/09/05 00:06:49;;;;;;;19.40;13.70;;;;;;;11.13;100.00;100191.30;109671;1250;74030;-68
2023/09/05 00:09:19;;;;;;;19.20;13.40;;;;;;;11.16;100.00;100189.04;109661;1250;67764;-68
2023/09/05 00:11:46;;;;;;;15.70;13.00;;;;;;;11.19;100.00;100191.10;109697;1250;72572;-68
2023/09/05 00:14:12;;;;;;;16.90;13.60;;;;;;;11.21;100.00;100194.85;109608;1250;60400;-66
2023/09/05 00:16:39;;;;;;;15.20;12.30;;;;;;;11.20;100.00;100191.38;109637;1250;59628;-66
2023/09/05 00:19:06;;;;;;;16.70;12.60;;;;;;;11.21;100.00;100193.62;109649;1250;75411;-65
2023/09/05 00:21:32;;;;;;;17.00;13.10;;;;;;;11.22;100.00;100193.85;109714;1250;66324;-69
2023/09/05 00:24:25;;;;;;;14.80;13.30;;;;;;;11.19;100.00;100192.35;109658;1250;71203;-67
2023/09/05 00:26:52;;;;;;;16.90;13.30;;;;;;;11.16;100.00;100194.62;109593;1250;60493;-66
2023/09/05 00:29:19;;;;;;;19.50;12.10;;;;;;;11.13;100.00;100200.73;109673;1250;59696;-66
2023/09/05 00:31:46;;;;;;;19.30;13.40;;;;;;;11.09;100.00;100202.02;109582;1250;75421;-66
2023/09/05 00:34:14;;;;;;;17.90;13.90;;;;;;;11.02;100.00;100204.52;109753;1250;67749;-69
2023/09/05 00:36:42;;;;;;;19.10;13.00;;;;;;;10.99;100.00;100203.83;109659;1250;71131;-68
2023/09/05 00:39:09;;;;;;;14.50;12.80;;;;;;;10.98;100.00;100211.34;109548;1250;60707;-67
2023/09/05 00:41:37;;;;;;;18.90;14.20;;;;;;;11.00;100.00;100206.86;109661;1250;60113;-66
2023/09/05 00:44:04;;;;;;;19.80;13.80;;;;;;;11.02;100.00;100203.48;109609;1250;74813;-69
2023/09/05 00:46:32;;;;;;;16.50;14.00;;;;;;;11.02;100.00;100204.41;109639;1250;66666;-67
2023/09/05 00:49:02;;;;;;;17.10;12.60;;;;;;;11.01;100.00;100204.54;109591;1250;72441;-67
2023/09/05 00:51:31;;;;;;;16.10;12.30;;;;;;;10.97;100.00;100205.41;109600;1250;62012;-68
2023/09/05 00:54:01;;;;;;;17.70;12.30;;;;;;;10.92;100.00;100200.58;109544;1250;59829;-67
2023/09/05 00:56:28;;;;;;;16.90;12.60;;;;;;;10.87;100.00;100199.54;109515;1250;74266;-65
2023/09/05 00:58:55;;;;;;;18.50;12.80;;;;;;;10.83;100.00;100202.43;109598;1250;67758;-68
2023/09/05 01:01:22;;;;;;;17.00;11.80;;;;;;;10.79;100.00;100203.91;109635;1250;72354;-68
2023/09/05 01:03:50;;;;;;;19.60;13.60;;;;;;;10.78;100.00;100206.83;109625;1250;59799;-67
2023/09/05 01:06:22;;;;;;;18.60;13.60;;;;;;;10.80;100.00;100211.96;109713;1250;60713;-66
2023/09/05 01:09:13;;;;;;;19.00;14.10;;;;;;;10.80;100.00;100213.55;109575;1250;75339;-69
2023/09/05 01:11:40;;;;;;;16.10;11.90;;;;;;;10.77;100.00;100209.98;109658;1250;66436;-68
2023/09/05 01:14:07;;;;;;;19.40;12.60;;;;;;;10.74;100.00;100212.58;109633;1250;72351;-67
2023/09/05 01:16:33;;;;;;;16.80;12.40;;;;;;;10.71;100.00;100214.11;109646;1250;60622;-67
2023/09/05 01:19:01;;;;;;;14.80;12.50;;;;;;;10.67;100.00;100212.92;109556;1250;59675;-67
2023/09/05 01:21:38;;;;;;;16.60;12.70;;;;;;;10.66;100.00;100213.80;109681;1250;75545;-66
2023/09/05 01:24:15;;;;;;;18.50;13.10;;;;;;;10.64;100.00;100216.15;109570;1251;67917;-68
2023/09/05 01:26:43;;;;;;;15.80;13.30;;;;;;;10.64;100.00;100220.20;109486;1251;71155;-69
2023/09/05 01:29:11;;;;;;;15.50;12.60;;;;;;;10.64;100.00;100222.23;109495;1251;60082;-67
2023/09/05 01:31:38;;;;;;;17.00;12.40;;;;;;;10.63;100.00;100222.09;109679;1250;59680;-66
2023/09/05 01:34:05;;;;;;;13.80;12.10;;;;;;;10.58;100.00;100218.48;109505;1250;75215;-68
2023/09/05 01:36:31;;;;;;;16.00;12.70;;;;;;;10.56;100.00;100221.83;109673;1250;59830;-66
2023/09/05 01:38:58;;;;;;;17.00;11.90;;;;;;;10.56;100.00;100218.30;109692;1250;59773;-68
2023/09/05 01:41:25;;;;;;;16.50;12.70;;;;;;;10.56;100.00;100217.56;109587;1250;62135;-66
2023/09/05 01:43:51;;;;;;;17.10;11.50;;;;;;;10.56;100.00;100216.77;109668;1250;59709;-68
2023/09/05 01:46:18;;;;;;;17.30;12.80;;;;;;;10.54;100.00;100216.50;109520;1251;60410;-69
2023/09/05 01:48:44;;;;;;;13.90;11.90;;;;;;;10.54;100.00;100219.02;109693;1250;66860;-69
2023/09/05 01:51:11;;;;;;;15.60;12.00;;;;;;;10.53;100.00;100223.73;109623;1250;72730;-67
2023/09/05 01:53:37;;;;;;;18.10;12.40;;;;;;;10.49;100.00;100221.47;109639;1250;59725;-69
2023/09/05 01:56:04;;;;;;;13.30;11.50;;;;;;;10.46;100.00;100220.89;109695;1250;59991;-68
2023/09/05 01:58:31;;;;;;;14.90;11.50;;;;;;;10.46;100.00;100222.70;109682;1250;75922;-66
2023/09/05 02:01:02;;;;;;;15.10;11.90;;;;;;;10.46;100.00;100222.86;109592;1250;67599;-67
2023/09/05 02:03:29;;;;;;;15.10;11.80;;;;;;;10.47;100.00;100224.17;109631;1250;72762;-68
2023/09/05 02:05:56;;;;;;;14.50;11.40;;;;;;;10.49;100.00;100232.13;109611;1251;61744;-69
2023/09/05 02:08:22;;;;;;;15.30;11.50;;;;;;;10.50;100.00;100238.37;109672;1250;59978;-66
2023/09/05 02:10:49;;;;;;;16.30;10.10;;;;;;;10.52;100.00;100244.77;109600;1250;60255;-66
2023/09/05 02:13:17;;;;;;;14.90;13.00;;;;;;;10.52;100.00;100245.14;109724;1250;67659;-68
2023/09/05 02:15:43;;;;;;;13.50;11.70;;;;;;;10.51;100.00;100242.53;109671;1250;71958;-66
2023/09/05 02:18:13;;;;;;;13.30;11.90;;;;;;;10.52;100.00;100244.94;109530;1250;59805;-68
2023/09/05 02:20:40;;;;;;;14.70;11.60;;;;;;;10.53;100.00;100245.55;109637;1251;59835;-67
2023/09/05 02:23:07;;;;;;;18.40;12.00;;;;;;;10.53;100.00;100244.61;109659;1250;75632;-67
2023/09/05 02:25:33;;;;;;;14.70;11.50;;;;;;;10.53;100.00;100247.64;109663;1250;66506;-68
2023/09/05 02:28:00;;;;;;;12.90;10.90;;;;;;;10.56;100.00;100248.13;109645;1250;72647;-66
2023/09/05 02:30:26;;;;;;;13.70;11.30;;;;;;;10.58;100.00;100249.89;109587;1250;59748;-66
2023/09/05 02:32:53;;;;;;;14.20;11.10;;;;;;;10.58;100.00;100246.67;109614;1250;60645;-66
2023/09/05 02:35:24;;;;;;;12.40;10.30;;;;;;;10.57;100.00;100245.54;109569;1250;75290;-68
2023/09/05 02:37:51;;;;;;;14.30;12.20;;;;;;;10.55;100.00;100246.44;109725;1250;66344;-67
2023/09/05 02:40:18;;;;;;;13.20;11.90;;;;;;;10.53;100.00;100243.77;109651;1250;72411;-66
2023/09/05 02:42:45;;;;;;;13.30;10.90;;;;;;;10.51;100.00;100246.59;109637;1250;61627;-67
2023/09/05 02:45:11;;;;;;;13.00;10.20;;;;;;;10.50;100.00;100245.89;109679;1250;59721;-66
2023/09/05 02:47:39;;;;;;;16.30;11.10;;;;;;;10.46;100.00;100245.04;109597;1250;75629;-67
2023/09/05 02:50:06;;;;;;;13.60;11.70;;;;;;;10.42;100.00;100243.70;109606;1250;66571;-68
2023/09/05 02:52:36;;;;;;;14.00;11.00;;;;;;;10.39;100.00;100244.27;109644;1251;71422;-68
2023/09/05 02:55:14;;;;;;;13.80;11.20;;;;;;;10.37;100.00;100247.52;109631;1250;61823;-69
2023/09/05 02:57:41;;;;;;;12.60;11.00;;;;;;;10.35;100.00;100249.29;109581;1250;60038;-66
2023/09/05 03:00:08;;;;;;;14.80;11.50;;;;;;;10.35;100.00;100252.15;109647;1250;75285;-69
2023/09/05 03:02:35;;;;;;;13.80;11.90;;;;;;;10.36;100.00;100252.36;109675;1250;66996;-67
2023/09/05 03:05:02;;;;;;;17.00;11.90;;;;;;;10.36;100.00;100257.56;109621;1250;71138;-66
2023/09/05 03:07:29;;;;;;;11.20;10.10;;;;;;;10.34;100.00;100259.91;109626;1250;60094;-69
2023/09/05 03:09:55;;;;;;;13.50;10.60;;;;;;;10.30;100.00;100258.70;109663;1252;59863;-69
2023/09/05 03:12:23;;;;;;;14.10;10.00;;;;;;;10.27;100.00;100260.60;109575;1250;74540;-69
2023/09/05 03:14:50;;;;;;;12.30;10.60;;;;;;;10.24;100.00;100262.65;109568;1250;67613;-67
2023/09/05 03:17:17;;;;;;;11.60;10.40;;;;;;;10.20;100.00;100261.75;109544;1250;71547;-67
2023/09/05 03:19:43;;;;;;;15.40;10.90;;;;;;;10.16;100.00;100262.16;109460;1250;60036;-68
2023/09/05 03:22:10;;;;;;;13.80;10.40;;;;;;;10.12;100.00;100259.38;109558;1251;59889;-66
2023/09/05 03:24:37;;;;;;;18.20;10.70;;;;;;;10.06;100.00;100255.67;109674;1250;74125;-68
2023/09/05 03:27:04;;;;;;;17.70;11.40;;;;;;;10.02;100.00;100256.45;109624;1250;66346;-68
2023/09/05 03:29:30;;;;;;;12.20;10.30;;;;;;;9.98;100.00;100257.17;109630;1250;71128;-69
2023/09/05 03:31:57;;;;;;;14.10;10.40;;;;;;;9.95;100.00;100255.34;109652;1250;61785;-67
2023/09/05 03:34:25;;;;;;;11.90;9.50;;;;;;;9.94;100.00;100254.89;109539;1253;59648;-67
2023/09/05 03:36:52;;;;;;;12.10;9.90;;;;;;;9.93;100.00;100253.22;109653;1250;75233;-66
2023/09/05 03:39:18;;;;;;;15.50;10.60;;;;;;;9.92;100.00;100254.71;109676;1250;67298;-70
2023/09/05 03:41:45;;;;;;;13.70;10.20;;;;;;;9.94;100.00;100257.59;109688;1250;59821;-67
2023/09/05 03:44:11;;;;;;;10.70;9.50;;;;;;;9.97;100.00;100261.77;109449;1250;61878;-69
2023/09/05 03:46:38;;;;;;;16.60;10.40;;;;;;;9.99;100.00;100265.08;109563;1252;60174;-66
2023/09/05 03:49:07;;;;;;;12.40;10.40;;;;;;;10.01;100.00;100271.23;109703;1250;59741;-70
2023/09/05 03:51:34;;;;;;;14.30;11.00;;;;;;;10.05;100.00;100273.54;109700;1251;66738;-73
2023/09/05 03:54:01;;;;;;;13.50;11.20;;;;;;;10.10;100.00;100274.66;109631;1250;71417;-69
2023/09/05 03:56:28;;;;;;;14.30;11.00;;;;;;;10.14;100.00;100274.77;109512;1250;62090;-69
2023/09/05 03:58:55;;;;;;;13.20;10.20;;;;;;;10.18;100.00;100276.50;109634;1250;59656;-68
2023/09/05 04:01:22;;;;;;;13.00;10.30;;;;;;;10.22;100.00;100278.98;109487;1250;75418;-69
2023/09/05 04:03:50;;;;;;;14.90;10.90;;;;;;;10.27;100.00;100283.04;109585;1250;68023;-69
2023/09/05 04:06:17;;;;;;;12.50;10.40;;;;;;;10.35;100.00;100286.41;109679;1250;72635;-69
2023/09/05 04:08:44;;;;;;;17.50;11.60;;;;;;;10.40;100.00;100286.19;109575;1250;60397;-69
2023/09/05 04:11:11;;;;;;;13.00;10.20;;;;;;;10.52;100.00;100290.34;109578;1251;60013;-68
2023/09/05 04:13:37;;;;;;;17.30;10.60;;;;;;;10.69;100.00;100286.55;109583;1250;75328;-69
2023/09/05 04:16:05;;;;;;;22.30;11.30;;;;;;;10.91;100.00;100286.06;109672;1250;65854;-70
2023/09/05 04:18:33;;;;;;;14.70;9.80;;;;;;;11.21;100.00;100284.67;109619;1250;71453;-69
2023/09/05 04:20:59;;;;;;;15.40;9.50;;;;;;;11.57;100.00;100281.48;109662;1250;60490;-71
2023/09/05 04:23:26;;;;;;;13.00;9.90;;;;;;;11.94;100.00;100275.33;109597;1250;60294;-69
2023/09/05 04:26:01;;;;;;;12.30;9.00;;;;;;;12.33;100.00;100266.66;109521;1250;75330;-67
2023/09/05 04:28:28;;;;;;;10.10;8.50;;;;;;;12.78;100.00;100267.20;109642;1250;67860;-68
2023/09/05 04:30:56;;;;;;;19.50;10.20;;;;;;;13.18;100.00;100265.26;109484;1250;71422;-69
2023/09/05 04:33:24;;;;;;;15.20;9.10;;;;;;;13.49;100.00;100259.19;109707;1250;60080;-68
2023/09/05 04:35:52;;;;;;;15.60;9.30;;;;;;;13.74;100.00;100258.60;109566;1250;60055;-67
2023/09/05 04:38:19;;;;;;;12.50;8.60;;;;;;;14.04;100.00;100255.57;109587;1250;60357;-68
2023/09/05 04:40:45;;;;;;;11.40;9.10;;;;;;;14.36;100.00;100251.51;109724;1250;67867;-67
2023/09/05 04:43:12;;;;;;;10.80;9.20;;;;;;;14.77;100.00;100251.59;109524;1250;72366;-68
2023/09/05 04:45:38;;;;;;;19.50;10.00;;;;;;;15.23;100.00;100255.91;109697;1250;60140;-69
2023/09/05 04:48:05;;;;;;;16.80;9.70;;;;;;;15.67;100.00;100253.14;109577;1255;60091;-71
2023/09/05 04:50:32;;;;;;;24.60;10.40;;;;;;;16.10;100.00;100248.58;109670;1250;73703;-73
2023/09/05 04:52:59;;;;;;;17.40;10.10;;;;;;;16.52;100.00;100248.17;109689;1250;67559;-71
2023/09/05 04:55:26;;;;;;;16.60;10.70;;;;;;;16.91;100.00;100242.95;109684;1250;71800;-70
2023/09/05 04:57:52;;;;;;;22.80;10.90;;;;;;;17.25;100.00;100235.38;109668;1250;59728;-71
2023/09/05 05:00:20;;;;;;;14.20;9.10;;;;;;;17.56;100.00;100228.17;109691;1250;59837;-71
2023/09/05 05:02:46;;;;;;;16.00;10.20;;;;;;;17.86;100.00;100222.27;109707;1250;75550;-72
2023/09/05 05:05:13;;;;;;;12.30;9.00;;;;;;;18.08;100.00;100219.77;109674;1250;67980;-78
2023/09/05 05:07:40;;;;;;;10.90;9.70;;;;;;;18.20;100.00;100221.07;109678;1250;59812;-71
2023/09/05 05:10:08;;;;;;;14.10;9.20;;;;;;;18.35;100.00;100223.59;109609;1250;60491;-72
2023/09/05 05:12:35;;;;;;;11.40;9.30;;;;;;;18.55;100.00;100224.60;109673;1250;59649;-71
2023/09/05 05:15:01;;;;;;;15.20;9.90;;;;;;;18.82;100.00;100227.80;109660;1251;75344;-77
2023/09/05 05:17:28;;;;;;;24.90;10.20;;;;;;;19.07;100.00;100230.44;109364;1250;380629;-78
2023/09/05 05:19:56;;;;;;;15.00;9.60;;;;;;;19.20;100.00;100229.36;109457;1250;71207;-74
2023/09/05 05:22:22;;;;;;;24.90;9.90;;;;;;;19.35;100.00;100227.23;109670;1250;60754;-75
2023/09/05 05:24:51;;;;;;;21.00;9.70;;;;;;;19.59;100.00;100226.86;109715;1250;60088;-77
2023/09/05 05:27:17;;;;;;;22.80;10.40;;;;;;;19.82;100.00;100224.11;109723;1250;76007;-74
2023/09/05 05:29:44;;;;;;;11.20;8.60;;;;;;;20.04;100.00;100219.02;109506;1250;66656;-74
2023/09/05 05:32:11;;;;;;;14.40;8.90;;;;;;;20.37;100.00;100221.34;109482;1250;73012;-75
2023/09/05 05:34:37;;;;;;;16.70;9.70;;;;;;;20.62;100.00;100223.65;109520;1253;60362;-78
2023/09/05 05:37:04;;;;;;;19.90;8.80;;;;;;;20.74;100.00;100221.13;109548;1250;60165;-77
2023/09/05 05:39:30;;;;;;;13.10;9.20;;;;;;;20.82;100.00;100222.39;109541;1250;75262;-77
2023/09/05 05:41:57;;;;;;;15.10;9.80;;;;;;;20.97;100.00;100224.46;109517;1250;66316;-70
2023/09/05 05:44:23;;;;;;;11.80;8.50;;;;;;;21.11;100.00;100225.70;109409;1250;73043;-72
2023/09/05 05:46:50;;;;;;;14.90;8.80;;;;;;;21.19;100.00;100224.30;109611;1250;59726;-74
2023/09/05 05:49:16;;;;;;;11.20;8.80;;;;;;;21.38;100.00;100226.17;109701;1250;59719;-69
2023/09/05 05:51:43;;;;;;;15.70;10.00;;;;;;;21.67;100.00;100224.20;109703;1250;76047;-76
2023/09/05 05:54:10;;;;;;;17.20;10.70;;;;;;;22.01;100.00;100225.28;109721;1250;66720;-76
2023/09/05 05:56:36;;;;;;;28.90;10.20;;;;;;;22.30;100.00;100221.81;109673;1250;72659;-74
2023/09/05 05:59:03;;;;;;;19.30;9.80;;;;;;;22.60;100.00;100223.33;109635;1250;59741;-77
2023/09/05 06:01:30;;;;;;;15.60;9.70;;;;;;;22.88;100.00;100218.76;109595;1250;59653;-78
2023/09/05 06:03:56;;;;;;;12.00;9.30;;;;;;;23.10;100.00;100219.65;109667;1250;74590;-79
2023/09/05 06:06:23;;;;;;;13.20;9.70;;;;;;;23.33;100.00;100220.16;109634;1250;67962;-74
2023/09/05 06:08:50;;;;;;;12.60;8.60;;;;;;;23.57;99.56;100218.62;109486;1250;71447;-69
2023/09/05 06:11:17;;;;;;;11.20;8.70;;;;;;;23.82;96.94;100217.46;109637;1250;59780;-73
2023/09/05 06:13:43;;;;;;;9.00;7.40;;;;;;;24.09;94.95;100222.13;109714;1250;59859;-72
2023/09/05 06:16:10;;;;;;;14.90;9.50;;;;;;;24.37;91.68;100219.93;109576;1250;75227;-77
2023/09/05 06:18:37;;;;;;;15.90;10.70;;;;;;;24.68;90.79;100217.89;109551;1250;67911;-73
2023/09/05 06:21:03;;;;;;;11.30;9.60;;;;;;;25.00;87.66;100213.73;109725;1250;71324;-77
2023/09/05 06:23:32;;;;;;;17.20;12.10;;;;;;;25.22;84.40;100210.71;109630;1250;59719;-79
2023/09/05 06:25:59;;;;;;;22.40;11.30;;;;;;;25.34;82.21;100209.10;109654;1250;59681;-75
2023/09/05 06:28:25;;;;;;;15.20;9.70;;;;;;;25.50;81.73;100205.07;109633;1254;75306;-78
2023/09/05 06:30:59;;;;;;;29.80;9.70;;;;;;;25.65;79.51;100205.52;109656;1250;66599;-77
2023/09/05 06:33:28;;;;;;;14.50;8.10;;;;;;;25.79;77.47;100204.14;109639;1250;71452;-78
2023/09/05 06:35:55;;;;;;;14.70;8.60;;;;;;;25.94;76.97;100202.59;109641;1250;59656;-76
2023/09/05 06:38:22;;;;;;;17.30;7.00;;;;;;;26.17;75.45;100198.05;109637;1250;60146;-72
2023/09/05 06:40:50;;;;;;;17.60;7.60;;;;;;;26.36;75.23;100197.23;109709;1250;75140;-78
2023/09/05 06:43:16;;;;;;;11.10;7.60;;;;;;;26.62;72.26;100198.65;109744;1250;67765;-79
2023/09/05 06:45:43;;;;;;;12.20;6.10;;;;;;;26.87;70.19;100198.00;109562;1250;72534;-78
2023/09/05 06:48:10;;;;;;;12.50;6.20;;;;;;;27.15;70.28;100195.23;109409;1251;59769;-75
2023/09/05 06:50:36;;;;;;;11.20;6.00;;;;;;;27.57;67.91;100198.73;109696;1250;59842;-75
2023/09/05 06:53:03;;;;;;;10.50;5.70;;;;;;;27.99;64.77;100197.11;109735;1250;60038;-79
2023/09/05 06:55:34;;;;;;;11.00;6.10;;;;;;;28.25;60.44;100197.05;109712;1250;66714;-72
2023/09/05 06:58:01;;;;;;;10.50;6.50;;;;;;;28.26;58.25;100198.20;109735;1250;71459;-75
2023/09/05 07:00:28;;;;;;;10.80;6.90;;;;;;;28.23;60.79;100199.95;109635;1250;59866;-75
2023/09/05 07:02:54;;;;;;;11.20;6.50;;;;;;;28.42;61.62;100200.05;109675;1253;60223;-71
2023/09/05 07:05:21;;;;;;;7.00;6.10;;;;;;;28.56;60.20;100197.42;109692;1250;74020;-78
2023/09/05 07:07:48;;;;;;;7.00;5.80;;;;;;;28.68;58.82;100191.34;109641;1250;67636;-80
2023/09/05 07:10:15;;;;;;;10.40;6.20;;;;;;;28.76;57.72;100189.48;109551;1251;72447;-75
2023/09/05 07:12:41;;;;;;;11.70;5.90;;;;;;;28.81;56.28;100187.09;109648;1253;59767;-77
2023/09/05 07:15:08;;;;;;;11.20;5.60;;;;;;;28.85;55.91;100186.97;109699;1251;59942;-71
2023/09/05 07:17:35;;;;;;;8.70;5.20;;;;;;;28.94;54.86;100186.55;109614;1250;75401;-73
2023/09/05 07:20:01;;;;;;;9.00;5.40;;;;;;;29.08;55.84;100187.24;109650;1251;67753;-75
2023/09/05 07:22:28;;;;;;;9.50;5.10;;;;;;;29.45;55.83;100189.16;109641;1251;72628;-75
2023/09/05 07:24:55;;;;;;;8.20;4.80;;;;;;;29.84;54.10;100190.49;109694;1250;60354;-77
2023/09/05 07:27:21;;;;;;;7.10;4.80;;;;;;;30.17;50.45;100185.48;109613;1250;60216;-76
2023/09/05 07:29:48;;;;;;;7.30;4.90;;;;;;;30.27;48.01;100185.61;109688;1250;74575;-80
2023/09/05 07:32:15;;;;;;;9.30;4.60;;;;;;;30.30;48.38;100190.48;109770;1250;67663;-79
2023/09/05 07:34:42;;;;;;;6.70;4.40;;;;;;;30.31;46.60;100189.48;109673;1250;71911;-78
2023/09/05 07:37:08;;;;;;;10.70;5.10;;;;;;;30.23;47.57;100196.50;109670;1251;59832;-73
2023/09/05 07:39:35;;;;;;;5.80;3.70;;;;;;;30.48;48.46;100197.10;109693;1250;59768;-74
2023/09/05 07:42:01;;;;;;;4.90;3.80;;;;;;;30.89;46.93;100195.96;109663;1250;75604;-79
2023/09/05 07:44:28;;;;;;;8.60;3.70;;;;;;;31.24;46.04;100196.05;109657;1251;66888;-83
2023/09/05 07:46:55;;;;;;;9.20;3.60;;;;;;;31.53;44.61;100201.42;109644;1250;71565;-77
2023/09/05 07:49:21;;;;;;;6.60;3.40;;;;;;;31.63;43.35;100202.47;109594;1251;59684;-78
2023/09/05 07:51:48;;;;;;;7.40;3.80;;;;;;;31.74;43.03;100203.52;109524;1251;59824;-72
2023/09/05 07:54:16;;;;;;;10.20;3.60;;;;;;;31.93;42.51;100197.79;109684;1250;75395;-72
2023/09/05 07:56:43;;;;;;;7.60;3.10;;;;;;;31.99;40.76;100198.66;109671;1250;68065;-74
2023/09/05 07:59:09;;;;;;;6.00;3.30;;;;;;;31.86;41.10;100201.02;109632;1251;72930;-75
2023/09/05 08:01:37;;;;;;;4.40;3.00;;;;;;;32.06;40.18;100200.56;109621;1251;60249;-75
2023/09/05 08:04:04;;;;;;;5.40;3.00;;;;;;;32.27;40.21;100198.59;109647;1251;60519;-73
2023/09/05 08:06:31;;;;;;;5.10;2.90;;;;;;;32.61;39.48;100193.17;109697;1250;73737;-76
2023/09/05 08:08:58;;;;;;;3.80;2.80;;;;;;;32.88;38.57;100191.55;109660;1250;68034;-75
2023/09/05 08:11:25;;;;;;;5.20;2.30;;;;;;;33.08;37.63;100188.38;109623;1250;71004;-77
2023/09/05 08:13:52;;;;;;;5.00;2.60;;;;;;;33.25;36.64;100190.85;109590;1251;60124;-75
2023/09/05 08:16:21;;;;;;;6.50;2.50;;;;;;;33.40;36.43;100190.91;109567;1251;59761;-77
2023/09/05 08:18:47;;;;;;;3.50;2.40;;;;;;;33.45;35.56;100191.09;109608;1250;75410;-72
2023/09/05 08:21:14;;;;;;;3.40;2.00;;;;;;;33.55;35.15;100192.23;109679;1250;66311;-74
2023/09/05 08:23:40;;;;;;;3.40;1.80;;;;;;;33.76;34.15;100190.69;109652;1251;72662;-77
2023/09/05 08:26:10;;;;;;;2.40;2.10;;;;;;;33.93;32.81;100186.81;109648;1250;60236;-73
2023/09/05 08:28:42;;;;;;;3.30;2.10;;;;;;;33.83;32.24;100188.13;109678;1251;60287;-74
2023/09/05 08:31:10;;;;;;;2.40;2.10;;;;;;;33.58;32.36;100184.46;109648;1251;75557;-74
2023/09/05 08:33:45;;;;;;;2.00;1.80;;;;;;;33.50;32.40;100183.42;109668;1250;66706;-79
2023/09/05 08:36:11;;;;;;;2.20;2.00;;;;;;;33.54;32.04;100180.19;109612;1251;72516;-77
2023/09/05 08:38:39;;;;;;;3.40;2.00;;;;;;;33.65;32.16;100184.15;109550;1251;59715;-79
2023/09/05 08:41:08;;;;;;;2.30;1.80;;;;;;;33.72;31.89;100185.32;109608;1250;59642;-75
2023/09/05 08:43:35;;;;;;;2.00;1.80;;;;;;;33.73;30.83;100180.54;109691;1251;75526;-78
2023/09/05 08:46:03;;;;;;;2.20;1.90;;;;;;;33.75;30.51;100181.05;109546;1251;67683;-74
2023/09/05 08:48:32;;;;;;;3.00;2.10;;;;;;;33.92;30.48;100181.31;109689;1250;72323;-79
2023/09/05 08:51:20;;;;;;;3.20;1.60;;;;;;;34.07;30.22;100172.96;109553;1251;60359;-78
2023/09/05 08:53:52;;;;;;;2.90;2.00;;;;;;;34.06;30.29;100174.95;109589;1251;60011;-79
2023/09/05 08:56:19;;;;;;;2.40;2.20;;;;;;;34.09;30.04;100172.15;109724;1251;74272;-76
2023/09/05 08:58:45;;;;;;;3.90;1.70;;;;;;;34.18;29.69;100168.92;109525;1251;67870;-76
2023/09/05 09:01:12;;;;;;;1.80;1.70;;;;;;;34.31;29.70;100166.48;109579;1250;72617;-72
2023/09/05 09:03:39;;;;;;;1.70;1.50;;;;;;;34.44;28.41;100158.00;109599;1251;60241;-71
2023/09/05 09:06:06;;;;;;;2.90;2.10;;;;;;;34.36;27.82;100161.50;109627;1250;60188;-71
2023/09/05 09:08:43;;;;;;;1.70;1.60;;;;;;;34.27;27.77;100162.87;109693;1250;74621;-77
2023/09/05 09:11:09;;;;;;;1.80;1.70;;;;;;;34.08;27.69;100154.94;109712;1250;68197;-73
2023/09/05 09:13:38;;;;;;;1.50;1.40;;;;;;;33.98;28.12;100158.95;109595;1251;72477;-72
2023/09/05 09:16:05;;;;;;;1.90;1.80;;;;;;;34.07;28.70;100158.55;109642;1251;60168;-74
2023/09/05 09:18:32;;;;;;;1.80;1.60;;;;;;;34.21;29.02;100153.95;109640;1251;59643;-78
2023/09/05 09:21:03;;;;;;;3.60;1.80;;;;;;;34.34;28.98;100157.10;109644;1250;74280;-75
2023/09/05 09:23:33;;;;;;;6.30;4.80;;;;;;;34.52;28.63;100154.67;109702;1254;68353;-75
2023/09/05 09:26:00;;;;;;;3.00;2.60;;;;;;;34.63;28.42;100155.17;109636;1251;72322;-73
2023/09/05 09:28:32;;;;;;;2.60;1.80;;;;;;;34.63;28.14;100158.13;109397;1250;60080;-74
2023/09/05 09:31:04;;;;;;;1.80;1.70;;;;;;;34.49;27.54;100158.10;109714;1250;60189;-74
2023/09/05 09:33:31;;;;;;;1.60;1.50;;;;;;;34.28;27.00;100152.86;109686;1250;73774;-75
2023/09/05 09:36:03;;;;;;;1.60;1.50;;;;;;;34.07;27.20;100149.65;109675;1250;67886;-74
2023/09/05 09:38:30;;;;;;;4.00;1.70;;;;;;;33.93;27.73;100150.77;109658;1250;72440;-75
2023/09/05 09:41:00;;;;;;;4.40;2.00;;;;;;;33.98;27.79;100145.85;109615;1250;60037;-74
2023/09/05 09:43:31;;;;;;;2.10;1.70;;;;;;;34.04;27.10;100145.80;109595;1251;59798;-78
2023/09/05 09:46:03;;;;;;;2.20;2.00;;;;;;;33.94;27.46;100142.38;109710;1250;74609;-72
2023/09/05 09:48:33;;;;;;;2.20;2.00;;;;;;;33.74;27.72;100142.57;109706;1251;67626;-79
2023/09/05 09:51:00;;;;;;;3.00;1.50;;;;;;;33.59;27.72;100142.36;109589;1250;71282;-75
2023/09/05 09:53:30;;;;;;;4.10;2.00;;;;;;;33.37;28.06;100141.48;109497;1251;60227;-71
2023/09/05 09:55:57;;;;;;;2.60;1.90;;;;;;;33.11;28.43;100135.91;109650;1251;59665;-73
2023/09/05 09:58:24;;;;;;;1.90;1.80;;;;;;;33.00;28.68;100134.27;109599;1250;74042;-77
2023/09/05 10:00:51;;;;;;;2.20;1.90;;;;;;;32.87;28.35;100131.30;109724;1251;67609;-71
2023/09/05 10:03:18;;;;;;;2.70;1.70;;;;;;;32.70;28.27;100131.73;109515;1254;72439;-73
2023/09/05 10:05:45;;;;;;;2.40;2.00;;;;;;;32.63;28.86;100127.65;109701;1251;59800;-76
2023/09/05 10:08:11;;;;;;;2.00;1.80;;;;;;;32.67;28.99;100127.05;109536;1251;59685;-75
2023/09/05 10:10:38;;;;;;;2.30;2.10;;;;;;;32.67;29.14;100128.74;109656;1250;75285;-75
2023/09/05 10:13:08;;;;;;;1.90;1.80;;;;;;;32.66;28.95;100120.51;109596;1251;67906;-78
2023/09/05 10:15:44;;;;;;;3.70;2.50;;;;;;;32.54;28.95;100121.02;109631;1250;73055;-74
2023/09/05 10:18:10;;;;;;;3.30;2.30;;;;;;;32.34;29.19;100123.40;109552;1251;60039;-76
2023/09/05 10:20:37;;;;;;;2.50;2.30;;;;;;;31.84;28.93;100126.05;109527;1251;60110;-72
2023/09/05 10:23:06;;;;;;;3.20;2.00;;;;;;;31.12;29.56;100129.55;109504;1251;73876;-74
2023/09/05 10:25:35;;;;;;;2.10;1.90;;;;;;;30.54;30.17;100128.70;109622;1250;66434;-75
2023/09/05 10:28:01;;;;;;;2.40;2.10;;;;;;;30.17;30.90;100118.98;109600;1251;71917;-71
2023/09/05 10:30:29;;;;;;;2.30;2.10;;;;;;;29.97;31.48;100114.05;109589;1250;60234;-70
2023/09/05 10:32:56;;;;;;;4.30;2.40;;;;;;;29.86;32.04;100115.75;109685;1250;59759;-66
2023/09/05 10:35:23;;;;;;;3.10;2.10;;;;;;;29.83;33.02;100115.39;109507;1250;75290;-66
2023/09/05 10:37:51;;;;;;;2.40;1.90;;;;;;;29.76;31.97;100111.13;109728;1250;67579;-71
2023/09/05 10:40:18;;;;;;;3.10;2.30;;;;;;;29.54;32.20;100112.62;109575;1251;72329;-75
2023/09/05 10:42:50;;;;;;;2.40;2.20;;;;;;;29.22;32.03;100116.30;109485;1251;60364;-68
2023/09/05 10:45:17;;;;;;;3.20;2.20;;;;;;;28.81;32.30;100118.90;109666;1250;60097;-70
2023/09/05 10:47:45;;;;;;;2.10;1.90;;;;;;;28.41;32.42;100121.70;109666;1250;73722;-69
2023/09/05 10:50:12;;;;;;;4.40;1.60;;;;;;;27.92;33.00;100121.55;109629;1250;66540;-74
2023/09/05 10:52:38;;;;;;;3.20;2.20;;;;;;;27.48;33.92;100123.08;109540;1250;71886;-70
2023/09/05 10:55:32;;;;;;;2.40;1.90;;;;;;;27.09;35.08;100123.92;109628;1250;60383;-69
2023/09/05 10:57:58;;;;;;;2.60;2.30;;;;;;;26.77;36.03;100120.65;109606;1250;59666;-68
2023/09/05 11:00:28;;;;;;;4.30;2.40;;;;;;;26.54;35.62;100116.45;109646;1250;75270;-73
2023/09/05 11:02:56;;;;;;;3.10;2.10;;;;;;;26.42;36.20;100112.52;109700;1250;66931;-66
2023/09/05 11:05:26;;;;;;;3.10;1.90;;;;;;;26.36;36.57;100112.79;109642;1250;70729;-69
2023/09/05 11:07:55;;;;;;;2.20;2.00;;;;;;;26.30;37.47;100113.77;109652;1250;59769;-70